createdAt,value
2018-05-16T00:00:00.517Z,5.50
2018-05-16T00:02:28.088Z,5.63
2018-05-16T00:04:55.694Z,4.80
2018-05-16T00:07:23.309Z,5.33
2018-05-16T00:09:50.894Z,5.33
2018-05-16T00:12:18.685Z,6.27
2018-05-16T00:14:46.275Z,5.70
2018-05-16T00:17:13.877Z,6.63
2018-05-16T00:19:41.489Z,6.20
2018-05-16T00:22:09.066Z,5.80
2018-05-16T00:24:36.658Z,5.23
2018-05-16T00:27:04.275Z,5.50
2018-05-16T00:29:31.894Z,4.80
2018-05-16T00:31:59.469Z,6.03
2018-05-16T00:34:27.089Z,4.80
2018-05-16T00:36:54.678Z,5.20
2018-05-16T00:39:22.265Z,5.97
2018-05-16T00:41:49.879Z,6.27
2018-05-16T00:44:17.474Z,6.03
2018-05-16T00:46:45.069Z,5.73
2018-05-16T00:49:12.696Z,5.20
2018-05-16T00:51:40.287Z,5.80
2018-05-16T00:54:07.875Z,6.57
2018-05-16T00:56:35.514Z,5.43
2018-05-16T00:59:03.093Z,6.40
2018-05-16T01:01:30.676Z,5.57
2018-05-16T01:03:58.298Z,4.47
2018-05-16T01:06:25.875Z,6.87
2018-05-16T01:08:53.457Z,4.90
2018-05-16T01:11:21.080Z,5.10
2018-05-16T01:13:50.484Z,5.03
2018-05-16T01:16:18.081Z,4.73
2018-05-16T01:18:45.717Z,5.83
2018-05-16T01:21:13.312Z,4.23
2018-05-16T01:23:40.911Z,5.00
2018-05-16T01:26:08.536Z,5.03
2018-05-16T01:28:36.127Z,5.00
2018-05-16T01:31:03.727Z,5.13
2018-05-16T01:33:31.352Z,4.60
2018-05-16T01:35:58.937Z,4.90
2018-05-16T01:38:27.178Z,5.10
2018-05-16T01:40:55.581Z,3.73
2018-05-16T01:43:23.168Z,3.93
2018-05-16T01:45:50.758Z,4.93
2018-05-16T01:48:18.386Z,4.60
2018-05-16T01:50:45.981Z,5.17
2018-05-16T01:53:13.568Z,5.10
2018-05-16T01:55:41.200Z,5.10
2018-05-16T01:58:08.784Z,5.30
2018-05-16T02:00:36.391Z,6.03
2018-05-16T02:03:04.028Z,5.27
2018-05-16T02:05:31.615Z,5.27
2018-05-16T02:07:59.199Z,5.80
2018-05-16T02:10:26.827Z,5.07
2018-05-16T02:12:54.409Z,6.37
2018-05-16T02:15:22.010Z,6.80
2018-05-16T02:17:49.641Z,6.43
2018-05-16T02:20:17.227Z,6.70
2018-05-16T02:22:44.849Z,6.83
2018-05-16T02:25:12.468Z,6.40
2018-05-16T02:27:40.076Z,7.17
2018-05-16T02:30:07.669Z,6.47
2018-05-16T02:32:35.292Z,6.80
2018-05-16T02:35:02.890Z,6.30
2018-05-16T02:37:30.537Z,7.17
2018-05-16T02:39:58.152Z,7.30
2018-05-16T02:42:25.749Z,6.67
2018-05-16T02:44:53.337Z,7.07
2018-05-16T02:47:20.956Z,6.80
2018-05-16T02:49:48.556Z,6.50
2018-05-16T02:52:16.152Z,7.30
2018-05-16T02:54:43.820Z,7.20
2018-05-16T02:57:11.413Z,8.93
2018-05-16T02:59:39.003Z,7.10
2018-05-16T03:02:06.639Z,6.17
2018-05-16T03:04:34.244Z,8.30
2018-05-16T03:07:01.843Z,7.70
2018-05-16T03:09:29.493Z,7.23
2018-05-16T03:11:57.094Z,7.30
2018-05-16T03:14:24.694Z,6.73
2018-05-16T03:16:52.328Z,8.20
2018-05-16T03:19:19.935Z,9.17
2018-05-16T03:21:47.537Z,6.60
2018-05-16T03:24:15.173Z,7.90
2018-05-16T03:26:42.756Z,6.93
2018-05-16T03:29:10.353Z,7.43
2018-05-16T03:31:37.970Z,7.30
2018-05-16T03:34:05.558Z,8.47
2018-05-16T03:36:33.152Z,6.60
2018-05-16T03:39:00.798Z,8.37
2018-05-16T03:41:28.394Z,8.00
2018-05-16T03:43:55.990Z,11.60
2018-05-16T03:46:23.632Z,14.33
2018-05-16T03:48:51.228Z,6.20
2018-05-16T03:51:18.823Z,6.50
2018-05-16T03:53:46.474Z,6.57
2018-05-16T03:56:14.066Z,8.07
2018-05-16T03:58:53.438Z,6.53
2018-05-16T04:01:32.660Z,5.77
2018-05-16T04:04:11.955Z,6.13
2018-05-16T04:06:39.554Z,6.33
2018-05-16T04:09:07.131Z,5.73
2018-05-16T04:11:34.761Z,7.23
2018-05-16T04:14:02.340Z,7.30
2018-05-16T04:16:29.917Z,5.03
2018-05-16T04:18:57.557Z,5.63
2018-05-16T04:21:25.149Z,6.00
2018-05-16T04:23:52.739Z,4.87
2018-05-16T04:26:20.355Z,5.97
2018-05-16T04:28:47.958Z,4.93
2018-05-16T04:31:15.582Z,5.03
2018-05-16T04:33:43.199Z,4.43
2018-05-16T04:36:10.803Z,6.70
2018-05-16T04:38:38.383Z,4.37
2018-05-16T04:41:06.022Z,6.80
2018-05-16T04:43:33.791Z,6.13
2018-05-16T04:46:01.380Z,7.73
2018-05-16T04:48:29.004Z,5.83
2018-05-16T04:50:56.589Z,6.23
2018-05-16T04:53:24.181Z,5.30
2018-05-16T04:55:51.794Z,4.90
2018-05-16T04:58:19.376Z,5.43
2018-05-16T05:00:46.955Z,3.40
2018-05-16T05:03:14.589Z,3.70
2018-05-16T05:05:42.187Z,10.60
2018-05-16T05:08:09.768Z,4.47
2018-05-16T05:10:37.396Z,3.73
2018-05-16T05:13:04.977Z,4.93
2018-05-16T05:15:32.556Z,3.57
2018-05-16T05:18:00.155Z,4.30
2018-05-16T05:20:27.740Z,4.67
2018-05-16T05:22:55.333Z,4.60
2018-05-16T05:25:22.947Z,4.37
2018-05-16T05:27:50.536Z,4.67
2018-05-16T05:30:18.156Z,4.50
2018-05-16T05:32:45.765Z,4.40
2018-05-16T05:35:13.345Z,3.83
2018-05-16T05:37:40.942Z,4.00
2018-05-16T05:40:08.574Z,4.07
2018-05-16T05:42:36.148Z,6.03
2018-05-16T05:45:03.743Z,4.03
2018-05-16T05:47:31.367Z,2.97
2018-05-16T05:49:58.952Z,3.10
2018-05-16T05:52:26.531Z,3.13
2018-05-16T05:54:54.150Z,2.37
2018-05-16T05:57:21.730Z,2.80
2018-05-16T05:59:49.315Z,2.40
2018-05-16T06:02:16.936Z,2.57
2018-05-16T06:04:44.531Z,2.23
2018-05-16T06:07:12.098Z,2.30
2018-05-16T06:09:39.730Z,1.90
2018-05-16T06:12:07.320Z,1.70
2018-05-16T06:14:34.983Z,2.33
2018-05-16T06:17:02.610Z,2.03
2018-05-16T06:19:30.264Z,6.23
2018-05-16T06:21:57.809Z,2.10
2018-05-16T06:24:25.508Z,1.53
2018-05-16T06:26:53.088Z,2.30
2018-05-16T06:29:20.719Z,1.53
2018-05-16T06:31:48.340Z,1.63
2018-05-16T06:34:15.921Z,2.47
2018-05-16T06:36:43.520Z,1.90
2018-05-16T06:39:11.243Z,1.37
2018-05-16T06:41:38.767Z,1.20
2018-05-16T06:44:06.353Z,1.50
2018-05-16T06:46:33.980Z,1.33
2018-05-16T06:49:01.568Z,1.70
2018-05-16T06:51:29.134Z,1.43
2018-05-16T06:53:56.789Z,1.47
2018-05-16T06:56:24.416Z,2.60
2018-05-16T06:58:51.995Z,1.40
2018-05-16T07:01:19.627Z,1.67
2018-05-16T07:03:47.220Z,1.80
2018-05-16T07:06:14.800Z,2.60
2018-05-16T07:08:42.430Z,2.50
2018-05-16T07:11:10.027Z,2.20
2018-05-16T07:13:37.743Z,2.20
2018-05-16T07:16:05.338Z,1.67
2018-05-16T07:18:32.912Z,2.27
2018-05-16T07:21:00.500Z,2.07
2018-05-16T07:23:28.116Z,2.17
2018-05-16T07:25:55.689Z,1.10
2018-05-16T07:28:23.262Z,1.20
2018-05-16T07:30:50.880Z,1.83
2018-05-16T07:33:18.445Z,2.00
2018-05-16T07:35:46.018Z,1.50
2018-05-16T07:38:13.627Z,1.60
2018-05-16T07:40:41.196Z,1.80
2018-05-16T07:43:08.763Z,1.90
2018-05-16T07:45:36.356Z,1.33
2018-05-16T07:48:03.953Z,1.40
2018-05-16T07:50:31.528Z,1.90
2018-05-16T07:52:59.873Z,2.10
2018-05-16T07:55:27.468Z,3.50
2018-05-16T07:57:55.046Z,2.60
2018-05-16T08:00:22.644Z,3.50
2018-05-16T08:02:50.212Z,1.70
2018-05-16T08:05:17.777Z,2.00
2018-05-16T08:07:45.381Z,1.80
2018-05-16T08:10:12.957Z,2.20
2018-05-16T08:12:40.521Z,1.67
2018-05-16T08:15:08.123Z,1.70
2018-05-16T08:17:35.695Z,2.00
2018-05-16T08:20:03.289Z,1.80
2018-05-16T08:22:30.909Z,1.83
2018-05-16T08:24:58.493Z,2.03
2018-05-16T08:27:26.073Z,1.80
2018-05-16T08:29:53.682Z,2.03
2018-05-16T08:32:21.254Z,1.67
2018-05-16T08:34:48.819Z,2.00
2018-05-16T08:37:16.441Z,1.43
2018-05-16T08:39:44.036Z,1.53
2018-05-16T08:42:11.641Z,3.00
2018-05-16T08:44:39.275Z,2.30
2018-05-16T08:47:06.844Z,1.93
2018-05-16T08:49:34.439Z,1.60
2018-05-16T08:52:02.063Z,2.03
2018-05-16T08:54:29.646Z,1.63
2018-05-16T08:56:57.235Z,1.73
2018-05-16T08:59:24.867Z,3.70
2018-05-16T09:01:52.454Z,1.83
2018-05-16T09:04:20.029Z,2.30
2018-05-16T09:06:47.645Z,1.73
2018-05-16T09:09:15.225Z,2.33
2018-05-16T09:11:42.800Z,2.20
2018-05-16T09:14:10.406Z,1.60
2018-05-16T09:16:37.972Z,1.93
2018-05-16T09:19:05.547Z,2.20
2018-05-16T09:21:33.173Z,2.50
2018-05-16T09:24:00.760Z,2.20
2018-05-16T09:26:28.339Z,1.70
2018-05-16T09:28:55.954Z,1.50
2018-05-16T09:31:23.557Z,1.53
2018-05-16T09:33:51.175Z,2.50
2018-05-16T09:36:18.798Z,1.90
2018-05-16T09:38:46.419Z,2.00
2018-05-16T09:41:14.009Z,2.20
2018-05-16T09:43:41.680Z,1.83
2018-05-16T09:46:09.253Z,1.77
2018-05-16T09:48:36.877Z,1.35
2018-05-16T09:51:04.511Z,1.30
2018-05-16T09:53:32.100Z,2.53
2018-05-16T09:55:59.705Z,1.83
2018-05-16T09:58:27.487Z,2.90
2018-05-16T10:00:55.065Z,2.70
2018-05-16T10:03:22.642Z,2.00
2018-05-16T10:05:50.264Z,1.80
2018-05-16T10:08:17.847Z,2.90
2018-05-16T10:10:45.429Z,2.23
2018-05-16T10:13:13.038Z,2.27
2018-05-16T10:15:40.642Z,1.93
2018-05-16T10:18:08.227Z,1.97
2018-05-16T10:20:35.914Z,1.80
2018-05-16T10:23:03.486Z,1.97
2018-05-16T10:25:31.088Z,1.43
2018-05-16T10:27:58.728Z,1.50
2018-05-16T10:30:26.304Z,2.80
2018-05-16T10:32:53.868Z,2.33
2018-05-16T10:35:21.468Z,2.27
2018-05-16T10:37:49.023Z,2.23
2018-05-16T10:40:16.595Z,1.77
2018-05-16T10:42:44.227Z,2.97
2018-05-16T10:45:11.797Z,1.40
2018-05-16T10:47:39.359Z,1.20
2018-05-16T10:50:06.967Z,1.37
2018-05-16T10:52:34.526Z,1.67
2018-05-16T10:55:02.116Z,1.75
2018-05-16T10:57:29.836Z,2.27
2018-05-16T10:59:57.511Z,1.90
2018-05-16T11:02:25.105Z,1.67
2018-05-16T11:04:52.705Z,1.75
2018-05-16T11:07:20.267Z,2.10
2018-05-16T11:09:47.820Z,1.60
2018-05-16T11:12:15.426Z,1.40
2018-05-16T11:14:43.011Z,2.00
2018-05-16T11:17:10.583Z,1.60
2018-05-16T11:19:38.205Z,2.33
2018-05-16T11:22:05.772Z,1.58
2018-05-16T11:24:33.377Z,1.17
2018-05-16T11:27:00.990Z,2.12
2018-05-16T11:29:28.546Z,1.60
2018-05-16T11:31:56.117Z,1.80
2018-05-16T11:34:23.732Z,2.00
2018-05-16T11:36:51.335Z,2.17
2018-05-16T11:39:18.908Z,2.00
2018-05-16T11:41:46.501Z,1.90
2018-05-16T11:44:14.083Z,3.30
2018-05-16T11:46:41.653Z,2.97
2018-05-16T11:49:09.247Z,3.40
2018-05-16T11:51:36.822Z,2.20
2018-05-16T11:54:04.376Z,2.33
2018-05-16T11:56:31.967Z,2.20
2018-05-16T11:58:59.539Z,2.17
2018-05-16T12:01:27.094Z,2.40
2018-05-16T12:03:54.780Z,3.30
2018-05-16T12:06:22.345Z,1.70
2018-05-16T12:08:49.927Z,1.80
2018-05-16T12:11:17.535Z,2.13
2018-05-16T12:13:45.090Z,1.60
2018-05-16T12:16:12.705Z,1.60
2018-05-16T12:18:40.302Z,2.17
2018-05-16T12:21:07.869Z,1.90
2018-05-16T12:23:35.429Z,2.30
2018-05-16T12:26:03.020Z,1.83
2018-05-16T12:28:30.594Z,2.47
2018-05-16T12:30:58.180Z,1.80
2018-05-16T12:33:25.776Z,2.20
2018-05-16T12:35:53.350Z,2.07
2018-05-16T12:38:20.926Z,1.70
2018-05-16T12:40:48.529Z,2.17
2018-05-16T12:43:18.113Z,2.00
2018-05-16T12:45:45.736Z,1.90
2018-05-16T12:48:13.356Z,1.50
2018-05-16T12:50:40.915Z,1.97
2018-05-16T12:53:08.488Z,1.70
2018-05-16T12:55:36.095Z,2.33
2018-05-16T12:58:03.665Z,1.73
2018-05-16T13:00:31.264Z,1.50
2018-05-16T13:02:58.881Z,1.80
2018-05-16T13:05:26.466Z,1.83
2018-05-16T13:07:54.053Z,1.60
2018-05-16T13:10:21.682Z,2.53
2018-05-16T13:12:49.273Z,3.67
2018-05-16T13:15:16.877Z,1.60
2018-05-16T13:17:44.582Z,1.90
2018-05-16T13:20:12.147Z,1.70
2018-05-16T13:22:39.710Z,1.57
2018-05-16T13:25:07.344Z,1.70
2018-05-16T13:27:34.924Z,2.57
2018-05-16T13:30:02.487Z,1.53
2018-05-16T13:32:30.096Z,1.93
2018-05-16T13:34:57.665Z,1.80
2018-05-16T13:37:25.517Z,2.20
2018-05-16T13:39:53.130Z,1.43
2018-05-16T13:42:20.721Z,2.30
2018-05-16T13:44:48.294Z,3.60
2018-05-16T13:47:15.893Z,1.83
2018-05-16T13:49:43.455Z,1.60
2018-05-16T13:52:11.097Z,3.13
2018-05-16T13:54:38.802Z,2.10
2018-05-16T13:57:06.441Z,1.90
2018-05-16T13:59:34.028Z,2.33
2018-05-16T14:02:01.648Z,1.83
2018-05-16T14:04:29.223Z,2.20
2018-05-16T14:06:56.800Z,3.07
2018-05-16T14:09:24.400Z,2.47
2018-05-16T14:11:52.029Z,2.20
2018-05-16T14:14:19.612Z,1.90
2018-05-16T14:16:47.221Z,3.00
2018-05-16T14:19:14.807Z,5.23
2018-05-16T14:21:43.246Z,2.50
2018-05-16T14:24:11.795Z,2.47
2018-05-16T14:26:40.000Z,1.60
2018-05-16T14:29:07.755Z,2.10
2018-05-16T14:31:35.357Z,1.77
2018-05-16T14:34:02.924Z,1.93
2018-05-16T14:36:30.514Z,4.60
2018-05-16T14:38:58.153Z,4.20
2018-05-16T14:41:25.733Z,2.40
2018-05-16T14:43:53.333Z,2.33
2018-05-16T14:46:20.945Z,1.80
2018-05-16T14:48:48.528Z,1.60
2018-05-16T14:51:16.085Z,2.10
2018-05-16T14:53:43.698Z,1.80
2018-05-16T14:56:11.617Z,2.40
2018-05-16T14:58:39.180Z,2.17
2018-05-16T15:01:06.787Z,1.90
2018-05-16T15:03:34.356Z,1.37
2018-05-16T15:06:01.941Z,1.67
2018-05-16T15:08:29.549Z,2.40
2018-05-16T15:10:57.132Z,1.80
2018-05-16T15:13:24.713Z,2.27
2018-05-16T15:15:52.322Z,2.00
2018-05-16T15:18:19.899Z,4.07
2018-05-16T15:20:47.583Z,2.23
2018-05-16T15:23:15.212Z,1.93
2018-05-16T15:25:42.785Z,1.70
2018-05-16T15:28:10.369Z,1.70
2018-05-16T15:30:37.976Z,2.40
2018-05-16T15:33:05.622Z,1.90
2018-05-16T15:35:33.185Z,1.90
2018-05-16T15:38:00.792Z,2.10
2018-05-16T15:40:28.376Z,9.20
2018-05-16T15:42:55.998Z,2.43
2018-05-16T15:45:23.627Z,1.80
2018-05-16T15:47:51.202Z,1.97
2018-05-16T15:50:18.770Z,2.20
2018-05-16T15:52:46.361Z,2.47
2018-05-16T15:55:13.926Z,2.40
2018-05-16T15:57:41.503Z,2.10
2018-05-16T16:00:09.136Z,2.60
2018-05-16T16:02:36.710Z,3.20
2018-05-16T16:05:04.290Z,2.70
2018-05-16T16:07:31.896Z,2.83
2018-05-16T16:09:59.473Z,2.50
2018-05-16T16:12:27.056Z,3.33
2018-05-16T16:14:54.742Z,2.67
2018-05-16T16:17:22.322Z,7.27
2018-05-16T16:19:49.892Z,9.27
2018-05-16T16:22:17.516Z,3.07
2018-05-16T16:24:45.114Z,3.40
2018-05-16T16:27:12.723Z,5.70
2018-05-16T16:29:40.771Z,7.30
2018-05-16T16:32:08.455Z,4.00
2018-05-16T16:34:36.550Z,2.10
2018-05-16T16:37:04.883Z,4.87
2018-05-16T16:39:32.471Z,4.77
2018-05-16T16:42:00.998Z,2.50
2018-05-16T16:44:28.617Z,2.83
2018-05-16T16:46:56.182Z,2.13
2018-05-16T16:49:23.760Z,2.57
2018-05-16T16:51:51.398Z,3.37
2018-05-16T16:54:18.988Z,2.60
2018-05-16T16:56:46.627Z,1.93
2018-05-16T16:59:14.244Z,2.63
2018-05-16T17:01:42.121Z,3.43
2018-05-16T17:04:09.718Z,3.03
2018-05-16T17:06:37.337Z,2.33
2018-05-16T17:09:05.115Z,3.03
2018-05-16T17:11:32.685Z,2.80
2018-05-16T17:14:00.333Z,2.40
2018-05-16T17:16:27.948Z,6.70
2018-05-16T17:18:55.528Z,10.17
2018-05-16T17:21:23.143Z,2.27
2018-05-16T17:23:50.711Z,5.57
2018-05-16T17:26:18.307Z,2.97
2018-05-16T17:28:45.919Z,2.87
2018-05-16T17:31:13.477Z,3.33
2018-05-16T17:33:41.066Z,3.80
2018-05-16T17:36:08.666Z,2.60
2018-05-16T17:38:38.651Z,3.07
2018-05-16T17:41:06.228Z,1.97
2018-05-16T17:43:33.855Z,2.50
2018-05-16T17:46:01.511Z,2.67
2018-05-16T17:48:29.103Z,2.97
2018-05-16T17:50:56.706Z,2.80
2018-05-16T17:53:24.304Z,2.63
2018-05-16T17:55:51.872Z,3.53
2018-05-16T17:58:19.464Z,1.43
2018-05-16T18:00:47.096Z,3.67
2018-05-16T18:03:14.623Z,2.20
2018-05-16T18:05:42.557Z,2.27
2018-05-16T18:08:10.133Z,2.10
2018-05-16T18:10:37.729Z,1.53
2018-05-16T18:16:28.391Z,1.60
2018-05-16T18:18:55.976Z,1.70
2018-05-16T18:21:23.551Z,1.70
2018-05-16T18:23:51.141Z,1.97
2018-05-16T18:26:18.730Z,1.43
2018-05-16T18:28:46.312Z,1.47
2018-05-16T18:31:13.884Z,1.67
2018-05-16T18:33:41.489Z,1.70
2018-05-16T18:36:09.111Z,1.70
2018-05-16T18:38:36.668Z,2.13
2018-05-16T18:41:04.249Z,1.57
2018-05-16T18:43:31.817Z,1.80
2018-05-16T18:45:59.397Z,2.30
2018-05-16T18:48:27.016Z,1.70
2018-05-16T18:50:54.588Z,1.60
2018-05-16T18:53:22.149Z,1.50
2018-05-16T18:55:49.819Z,4.70
2018-05-16T18:58:17.392Z,1.87
2018-05-16T19:00:44.995Z,2.13
2018-05-16T19:03:12.589Z,2.07
2018-05-16T19:05:40.194Z,1.20
2018-05-16T19:08:07.774Z,1.97
2018-05-16T19:10:35.372Z,2.33
2018-05-16T19:13:02.949Z,11.63
2018-05-16T19:15:30.534Z,7.43
2018-05-16T19:17:58.153Z,2.50
2018-05-16T19:20:25.754Z,2.20
2018-05-16T19:22:53.323Z,5.10
2018-05-16T19:25:21.551Z,7.20
2018-05-16T19:27:49.136Z,2.17
2018-05-16T19:30:16.704Z,1.63
2018-05-16T19:32:44.301Z,2.37
2018-05-16T19:35:11.860Z,1.60
2018-05-16T19:37:39.466Z,2.00
2018-05-16T19:40:07.389Z,1.83
2018-05-16T19:42:34.969Z,1.47
2018-05-16T19:45:02.534Z,2.50
2018-05-16T19:47:30.156Z,1.33
2018-05-16T19:49:57.748Z,1.57
2018-05-16T19:52:25.314Z,2.13
2018-05-16T19:54:52.949Z,2.30
2018-05-16T19:57:20.531Z,1.60
2018-05-16T19:59:48.101Z,1.50
2018-05-16T20:02:15.706Z,1.30
2018-05-16T20:04:43.307Z,1.53
2018-05-16T20:07:10.892Z,2.83
2018-05-16T20:09:39.705Z,1.83
2018-05-16T20:12:07.294Z,1.70
2018-05-16T20:14:34.981Z,1.40
2018-05-16T20:17:02.553Z,1.87
2018-05-16T20:19:30.139Z,1.70
2018-05-16T20:21:57.742Z,1.77
2018-05-16T20:24:25.353Z,2.87
2018-05-16T20:26:52.947Z,1.90
2018-05-16T20:29:20.551Z,2.63
2018-05-16T20:31:48.186Z,1.93
2018-05-16T20:34:16.392Z,1.40
2018-05-16T20:36:44.053Z,1.50
2018-05-16T20:39:11.662Z,1.97
2018-05-16T20:41:39.258Z,1.50
2018-05-16T20:44:06.840Z,2.13
2018-05-16T20:46:34.446Z,1.80
2018-05-16T20:49:02.028Z,1.20
2018-05-16T20:51:29.615Z,4.53
2018-05-16T20:53:57.241Z,1.27
2018-05-16T20:56:24.818Z,1.60
2018-05-16T20:58:52.429Z,1.23
2018-05-16T21:01:20.062Z,1.73
2018-05-16T21:03:47.634Z,1.77
2018-05-16T21:06:15.204Z,1.53
2018-05-16T21:08:42.805Z,1.60
2018-05-16T21:11:10.394Z,1.90
2018-05-16T21:13:37.980Z,2.13
2018-05-16T21:16:05.597Z,1.00
2018-05-16T21:18:33.174Z,1.60
2018-05-16T21:21:00.754Z,1.33
2018-05-16T21:23:28.353Z,1.50
2018-05-16T21:25:55.941Z,1.63
2018-05-16T21:28:23.524Z,1.50
2018-05-16T21:30:51.149Z,1.10
2018-05-16T21:33:18.722Z,1.40
2018-05-16T21:35:46.312Z,1.67
2018-05-16T21:38:13.914Z,1.50
2018-05-16T21:40:41.499Z,2.47
2018-05-16T21:43:15.040Z,2.07
2018-05-16T21:45:42.619Z,1.87
2018-05-16T21:48:10.205Z,1.47
2018-05-16T21:50:38.793Z,1.80
2018-05-16T21:53:06.383Z,2.20
2018-05-16T21:55:33.983Z,2.47
2018-05-16T21:58:01.609Z,2.13
2018-05-16T22:00:30.128Z,2.23
2018-05-16T22:02:57.711Z,1.97
2018-05-16T22:05:25.325Z,1.57
2018-05-16T22:07:52.920Z,2.30
2018-05-16T22:10:20.522Z,2.90
2018-05-16T22:12:48.166Z,2.07
2018-05-16T22:15:15.756Z,2.07
2018-05-16T22:17:43.342Z,2.30
2018-05-16T22:20:11.402Z,2.37
2018-05-16T22:22:39.018Z,1.87
2018-05-16T22:25:06.638Z,2.30
2018-05-16T22:27:34.450Z,1.90
2018-05-16T22:30:01.480Z,2.23
2018-05-16T22:32:35.651Z,1.73
2018-05-16T22:35:08.633Z,2.20
2018-05-16T22:37:41.827Z,1.90
2018-05-16T22:40:14.816Z,2.20
2018-05-16T22:42:41.837Z,2.00
2018-05-16T22:45:09.455Z,2.57
2018-05-16T22:47:37.024Z,1.80
2018-05-16T22:50:04.628Z,2.03
2018-05-16T22:52:32.198Z,2.37
2018-05-16T22:54:59.790Z,2.33
2018-05-16T22:57:27.457Z,1.70
2018-05-16T22:59:55.057Z,1.90
2018-05-16T23:02:22.642Z,3.00
2018-05-16T23:04:50.381Z,2.30
2018-05-16T23:07:17.961Z,2.73
2018-05-16T23:09:45.612Z,1.87
2018-05-16T23:12:13.225Z,2.90
2018-05-16T23:14:40.806Z,2.03
2018-05-16T23:17:08.390Z,2.57
2018-05-16T23:19:36.004Z,2.80
2018-05-16T23:22:03.945Z,2.30
2018-05-16T23:24:32.946Z,2.20
2018-05-16T23:27:00.560Z,2.13
2018-05-16T23:29:28.128Z,2.10
2018-05-16T23:31:55.704Z,2.27
2018-05-16T23:34:25.183Z,2.33
2018-05-16T23:36:53.487Z,1.87
2018-05-16T23:39:21.067Z,2.70
2018-05-16T23:41:48.689Z,2.50
2018-05-16T23:44:16.261Z,1.93
2018-05-16T23:46:43.868Z,3.20
2018-05-16T23:49:11.494Z,2.20
2018-05-16T23:51:39.094Z,2.23
2018-05-16T23:54:06.701Z,2.23
2018-05-16T23:56:34.310Z,2.67
2018-05-16T23:59:02.334Z,2.83
